Time;durP1;ratioP1;P1;durP2;ratioP2;P2;SDS_P1;SDS_P2;PMS_P1;PMS_P2;Temp;Humidity;BMP_temperature;BMP_pressure;BME280_temperature;BME280_humidity;BME280_pressure;Samples;Min_cycle;Max_cycle;Signal;HPM_P1;HPM_P2
2023/03/11 00:00:24;;;;;;;9.13;2.40;;;0.40;99.90;;;;;;5059418;28;20449;-79
2023/03/11 00:02:52;;;;;;;7.70;2.90;;;0.40;99.90;;;;;;5055671;28;20043;-78
2023/03/11 00:05:25;;;;;;;5.50;2.23;;;0.50;99.90;;;;;;5041940;28;20130;-79
2023/03/11 00:07:51;;;;;;;4.43;2.20;;;0.50;99.90;;;;;;5046535;28;20049;-79
2023/03/11 00:10:20;;;;;;;8.60;2.20;;;0.50;99.90;;;;;;5065320;28;20673;-79
2023/03/11 00:12:46;;;;;;;5.37;2.20;;;0.50;99.90;;;;;;5039975;28;20036;-79
2023/03/11 00:15:12;;;;;;;6.70;2.50;;;0.50;99.90;;;;;;5035948;28;20063;-79
2023/03/11 00:17:38;;;;;;;5.30;1.93;;;0.50;99.90;;;;;;5053390;28;20037;-79
2023/03/11 00:20:05;;;;;;;7.33;2.80;;;0.50;99.90;;;;;;5055098;28;20095;-79
2023/03/11 00:22:32;;;;;;;5.10;2.27;;;0.50;99.90;;;;;;5046328;28;20537;-79
2023/03/11 00:24:58;;;;;;;7.87;2.30;;;0.50;99.90;;;;;;5060083;28;20472;-79
2023/03/11 00:27:23;;;;;;;7.70;2.67;;;0.50;99.90;;;;;;5039032;28;20106;-79
2023/03/11 00:29:49;;;;;;;5.23;2.47;;;0.50;99.90;;;;;;5032282;28;20445;-79
2023/03/11 00:32:15;;;;;;;6.03;2.47;;;0.50;99.90;;;;;;5060309;28;20048;-79
2023/03/11 00:34:41;;;;;;;6.70;2.20;;;0.50;99.90;;;;;;5052422;28;20227;-78
2023/03/11 00:37:07;;;;;;;4.03;2.10;;;0.50;99.90;;;;;;5061576;28;20048;-79
2023/03/11 00:39:33;;;;;;;6.73;1.97;;;0.50;99.90;;;;;;5053864;28;20033;-79
2023/03/11 00:41:58;;;;;;;9.50;2.30;;;0.50;99.90;;;;;;5032335;28;20048;-79
2023/03/11 00:44:24;;;;;;;4.30;2.20;;;0.50;99.90;;;;;;5048516;28;20036;-79
2023/03/11 00:46:50;;;;;;;5.27;1.93;;;0.50;99.90;;;;;;5044108;28;20036;-79
2023/03/11 00:49:16;;;;;;;6.50;2.20;;;0.50;99.90;;;;;;5018882;28;20053;-79
2023/03/11 00:51:41;;;;;;;7.33;2.67;;;0.50;99.90;;;;;;5016562;28;20051;-79
2023/03/11 00:54:07;;;;;;;6.60;2.30;;;0.50;99.90;;;;;;5044427;28;20124;-79
2023/03/11 00:56:33;;;;;;;8.43;2.77;;;0.50;99.90;;;;;;5062169;28;20033;-79
2023/03/11 00:58:58;;;;;;;7.47;2.30;;;0.50;99.90;;;;;;5035351;28;20049;-79
2023/03/11 01:01:24;;;;;;;7.47;2.23;;;0.50;99.90;;;;;;5048523;28;20044;-79
2023/03/11 01:03:50;;;;;;;6.80;2.10;;;0.40;99.90;;;;;;5031328;28;20085;-79
2023/03/11 01:06:15;;;;;;;7.90;2.37;;;0.50;99.90;;;;;;5034123;28;20044;-79
2023/03/11 01:08:41;;;;;;;6.70;2.60;;;0.40;99.90;;;;;;5060211;28;20059;-79
2023/03/11 01:11:07;;;;;;;6.07;2.17;;;0.40;99.90;;;;;;5058162;28;20040;-79
2023/03/11 01:13:34;;;;;;;5.60;2.30;;;0.40;99.90;;;;;;5050611;28;20072;-79
2023/03/11 01:16:00;;;;;;;5.43;2.47;;;0.40;99.90;;;;;;5029467;28;20045;-79
2023/03/11 01:18:26;;;;;;;8.07;2.57;;;0.40;99.90;;;;;;5062019;28;20045;-79
2023/03/11 01:20:52;;;;;;;7.27;2.20;;;0.40;99.90;;;;;;5069470;28;20040;-79
2023/03/11 01:23:19;;;;;;;5.77;2.07;;;0.40;99.90;;;;;;5050312;28;20033;-78
2023/03/11 01:25:45;;;;;;;6.13;2.30;;;0.40;99.90;;;;;;5034633;28;20120;-79
2023/03/11 01:28:11;;;;;;;6.73;2.43;;;0.40;99.90;;;;;;5066344;28;20182;-78
2023/03/11 01:30:38;;;;;;;6.10;2.17;;;0.40;99.90;;;;;;5062074;28;20043;-78
2023/03/11 01:33:05;;;;;;;5.07;2.27;;;0.40;99.90;;;;;;5045215;28;20119;-78
2023/03/11 01:35:32;;;;;;;3.13;2.13;;;0.30;99.90;;;;;;5041715;28;20435;-78
2023/03/11 01:37:58;;;;;;;7.07;2.20;;;0.30;99.90;;;;;;5052386;28;20182;-79
2023/03/11 01:40:34;;;;;;;7.97;2.33;;;0.30;99.90;;;;;;5044699;28;20036;-79
2023/03/11 01:43:02;;;;;;;8.13;2.30;;;0.30;99.90;;;;;;5039835;28;20056;-79
2023/03/11 01:45:46;;;;;;;8.30;2.13;;;0.30;99.90;;;;;;5061083;28;20497;-78
2023/03/11 01:48:12;;;;;;;4.70;2.00;;;0.30;99.90;;;;;;5049390;28;20121;-79
2023/03/11 01:50:43;;;;;;;6.33;2.33;;;0.30;99.90;;;;;;5058590;28;20128;-79
2023/03/11 01:53:10;;;;;;;6.68;2.10;;;0.30;99.90;;;;;;5051618;28;20052;-79
2023/03/11 01:55:37;;;;;;;3.93;2.10;;;0.30;99.90;;;;;;5061966;28;20118;-79
2023/03/11 01:58:07;;;;;;;5.67;2.10;;;0.30;99.90;;;;;;5047512;28;20094;-79
2023/03/11 02:00:34;;;;;;;6.57;2.00;;;0.30;99.90;;;;;;5050874;28;20435;-79
2023/03/11 02:03:05;;;;;;;6.17;2.00;;;0.30;99.90;;;;;;5057898;28;20091;-79
2023/03/11 02:05:32;;;;;;;4.50;2.20;;;0.30;99.90;;;;;;5057360;28;20032;-79
2023/03/11 02:07:58;;;;;;;5.87;2.13;;;0.30;99.90;;;;;;5034593;28;20044;-79
2023/03/11 02:10:25;;;;;;;5.77;1.70;;;0.30;99.90;;;;;;5047232;28;20434;-79
2023/03/11 02:12:51;;;;;;;6.90;2.00;;;0.30;99.90;;;;;;5051057;28;20072;-79
2023/03/11 02:15:17;;;;;;;4.23;2.00;;;0.30;99.90;;;;;;5048421;28;20738;-79
2023/03/11 02:17:43;;;;;;;8.90;2.13;;;0.30;99.90;;;;;;5022452;28;20120;-79
2023/03/11 02:20:30;;;;;;;5.80;1.90;;;0.30;99.90;;;;;;5045129;28;20049;-79
2023/03/11 02:22:56;;;;;;;7.30;1.90;;;0.30;99.90;;;;;;5043934;28;20131;-79
2023/03/11 02:25:39;;;;;;;5.33;1.80;;;0.30;99.90;;;;;;5023591;28;20042;-79
2023/03/11 02:28:09;;;;;;;5.17;1.90;;;0.30;99.90;;;;;;5052529;28;20049;-79
2023/03/11 02:30:38;;;;;;;5.53;1.70;;;0.30;99.90;;;;;;5051517;28;20582;-80
2023/03/11 02:33:04;;;;;;;4.93;1.70;;;0.30;99.90;;;;;;5069463;28;20051;-80
2023/03/11 02:35:30;;;;;;;4.33;1.90;;;0.20;99.90;;;;;;5015461;28;20537;-80
2023/03/11 02:37:56;;;;;;;5.17;1.83;;;0.20;99.90;;;;;;5029547;28;20040;-79
2023/03/11 02:40:37;;;;;;;7.90;2.10;;;0.20;99.90;;;;;;5039833;28;20041;-79
2023/03/11 02:43:07;;;;;;;4.03;1.80;;;0.10;99.90;;;;;;5043930;28;20125;-80
2023/03/11 02:45:34;;;;;;;5.67;1.67;;;0.10;99.90;;;;;;5063621;28;20511;-80
2023/03/11 02:48:01;;;;;;;4.50;1.70;;;0.10;99.90;;;;;;5052812;28;20090;-80
2023/03/11 02:50:28;;;;;;;6.60;1.90;;;0.00;99.90;;;;;;5058312;28;20488;-80
2023/03/11 02:52:53;;;;;;;6.20;1.83;;;0.00;99.90;;;;;;5061678;28;20072;-80
2023/03/11 02:55:20;;;;;;;4.97;1.80;;;-0.10;99.90;;;;;;5030512;28;20091;-80
2023/03/11 02:57:47;;;;;;;7.90;1.70;;;-0.10;99.90;;;;;;5037842;28;20072;-80
2023/03/11 03:00:15;;;;;;;4.83;2.00;;;-0.10;99.90;;;;;;5040082;28;20040;-79
2023/03/11 03:02:44;;;;;;;3.53;1.50;;;-0.10;99.90;;;;;;5067608;28;20303;-80
2023/03/11 03:05:10;;;;;;;4.43;2.00;;;-0.10;99.90;;;;;;5049742;28;20828;-79
2023/03/11 03:07:36;;;;;;;6.73;2.07;;;-0.10;99.90;;;;;;5061859;28;20578;-79
2023/03/11 03:10:03;;;;;;;5.10;1.87;;;-0.10;99.90;;;;;;5052410;28;20044;-79
2023/03/11 03:12:29;;;;;;;2.83;1.20;;;-0.20;99.90;;;;;;5043424;28;20127;-79
2023/03/11 03:14:56;;;;;;;4.33;1.80;;;-0.20;99.90;;;;;;5057129;28;20123;-80
2023/03/11 03:17:23;;;;;;;7.53;1.73;;;-0.20;99.90;;;;;;5021120;28;20055;-79
2023/03/11 03:19:49;;;;;;;5.57;1.80;;;-0.20;99.90;;;;;;5053239;28;20033;-79
2023/03/11 03:22:14;;;;;;;4.83;2.07;;;-0.30;99.90;;;;;;5051671;28;20505;-79
2023/03/11 03:24:40;;;;;;;6.13;1.93;;;-0.30;99.90;;;;;;5017144;28;20040;-79
2023/03/11 03:27:06;;;;;;;6.77;1.70;;;-0.40;99.90;;;;;;5028206;28;20128;-79
2023/03/11 03:29:31;;;;;;;6.73;1.67;;;-0.40;99.90;;;;;;5022536;28;20044;-80
2023/03/11 03:31:57;;;;;;;4.20;1.77;;;-0.50;99.90;;;;;;5032675;28;20041;-80
2023/03/11 03:34:23;;;;;;;5.97;1.77;;;-0.50;99.90;;;;;;5032154;28;20040;-80
2023/03/11 03:36:48;;;;;;;2.47;1.60;;;-0.60;99.90;;;;;;5031778;28;20032;-80
2023/03/11 03:39:14;;;;;;;4.37;2.00;;;-0.70;99.90;;;;;;5040388;28;20063;-80
2023/03/11 03:41:40;;;;;;;3.33;1.47;;;-0.80;99.90;;;;;;5024118;28;20507;-79
2023/03/11 03:44:06;;;;;;;3.57;1.50;;;-0.80;99.90;;;;;;5048128;28;20037;-79
2023/03/11 03:46:32;;;;;;;5.40;1.80;;;-0.90;99.90;;;;;;5016507;28;20044;-79
2023/03/11 03:48:57;;;;;;;6.77;1.80;;;-1.00;99.90;;;;;;5032894;28;20064;-80
2023/03/11 03:51:23;;;;;;;3.90;1.47;;;-1.00;99.90;;;;;;5023133;28;20078;-79
2023/03/11 03:53:49;;;;;;;7.13;1.87;;;-1.10;99.90;;;;;;5052403;28;20102;-80
2023/03/11 03:56:16;;;;;;;3.47;1.50;;;-1.20;99.90;;;;;;5046287;28;20499;-79
2023/03/11 03:58:42;;;;;;;3.57;1.70;;;-1.20;99.90;;;;;;5051857;28;20044;-80
2023/03/11 04:01:09;;;;;;;5.00;1.73;;;-1.30;99.90;;;;;;5025812;28;20041;-79
2023/03/11 04:03:36;;;;;;;3.43;1.50;;;-1.30;99.90;;;;;;5065801;28;20178;-79
2023/03/11 04:06:06;;;;;;;3.30;1.47;;;-1.40;99.90;;;;;;5057513;28;20052;-79
2023/03/11 04:08:32;;;;;;;3.43;1.80;;;-1.40;99.90;;;;;;5024254;28;20459;-79
2023/03/11 04:10:58;;;;;;;4.13;1.40;;;-1.40;99.90;;;;;;5018022;28;20172;-80
2023/03/11 04:13:23;;;;;;;3.70;2.10;;;-1.50;99.90;;;;;;5037769;28;20119;-79
2023/03/11 04:15:49;;;;;;;4.07;1.90;;;-1.50;99.90;;;;;;5052668;28;20045;-79
2023/03/11 04:18:15;;;;;;;5.60;1.87;;;-1.50;99.90;;;;;;5046152;28;20045;-79
2023/03/11 04:20:40;;;;;;;6.33;1.87;;;-1.50;99.90;;;;;;5029524;28;20047;-79
2023/03/11 04:23:06;;;;;;;2.80;1.60;;;-1.60;99.90;;;;;;5044208;28;20067;-79
2023/03/11 04:25:33;;;;;;;5.03;1.67;;;-1.60;99.90;;;;;;5048447;28;20411;-79
2023/03/11 04:27:59;;;;;;;4.57;1.90;;;-1.60;99.90;;;;;;5024858;28;20056;-79
2023/03/11 04:30:24;;;;;;;3.37;1.90;;;-1.70;99.90;;;;;;5058973;28;20044;-79
2023/03/11 04:32:50;;;;;;;4.63;1.53;;;-1.70;99.90;;;;;;5055447;28;20048;-79
2023/03/11 04:35:16;;;;;;;4.63;1.70;;;-1.70;99.90;;;;;;5044243;28;20049;-79
2023/03/11 04:37:42;;;;;;;3.53;1.90;;;-1.70;99.90;;;;;;5055529;28;20040;-79
2023/03/11 04:40:09;;;;;;;3.77;1.40;;;-1.70;99.90;;;;;;5042081;28;20036;-80
2023/03/11 04:42:35;;;;;;;4.57;1.70;;;-1.70;99.90;;;;;;5072470;28;20041;-79
2023/03/11 04:45:01;;;;;;;4.63;1.60;;;-1.70;99.90;;;;;;5046192;28;20106;-80
2023/03/11 04:47:27;;;;;;;4.87;1.63;;;-1.80;99.90;;;;;;5063161;28;20045;-80
2023/03/11 04:49:56;;;;;;;3.23;1.63;;;-1.80;99.90;;;;;;5019759;28;20068;-80
2023/03/11 04:52:22;;;;;;;4.10;1.60;;;-1.70;99.90;;;;;;5054202;28;20573;-80
2023/03/11 04:54:48;;;;;;;7.07;2.10;;;-1.70;99.90;;;;;;5072277;28;20040;-80
2023/03/11 04:57:13;;;;;;;2.97;1.57;;;-1.70;99.90;;;;;;5022832;28;20083;-80
2023/03/11 04:59:39;;;;;;;4.63;1.47;;;-1.70;99.90;;;;;;5047245;28;20054;-80
2023/03/11 05:02:05;;;;;;;4.57;1.80;;;-1.70;99.90;;;;;;5024313;28;20123;-80
2023/03/11 05:04:31;;;;;;;3.77;2.20;;;-1.70;99.90;;;;;;5038864;28;20049;-80
2023/03/11 05:06:56;;;;;;;5.73;1.53;;;-1.70;99.90;;;;;;5024252;28;20086;-80
2023/03/11 05:09:22;;;;;;;2.23;1.43;;;-1.80;99.90;;;;;;5048649;28;20076;-80
2023/03/11 05:11:48;;;;;;;5.07;1.70;;;-1.80;99.90;;;;;;5064374;28;20037;-80
2023/03/11 05:14:13;;;;;;;4.37;1.70;;;-1.80;99.90;;;;;;5042517;28;20131;-80
2023/03/11 05:16:39;;;;;;;3.73;1.47;;;-1.80;99.90;;;;;;5044165;28;20548;-80
2023/03/11 05:19:29;;;;;;;4.97;1.70;;;-1.80;99.90;;;;;;5071408;28;20048;-80
2023/03/11 05:21:51;;;;;;;2.47;1.50;;;-1.90;99.90;;;;;;5059170;28;20045;-80
2023/03/11 05:24:16;;;;;;;5.23;1.77;;;-1.90;99.90;;;;;;5045359;28;20283;-80
2023/03/11 05:26:42;;;;;;;5.87;1.90;;;-1.90;99.90;;;;;;5032606;28;20115;-80
2023/03/11 05:29:08;;;;;;;6.73;1.80;;;-1.90;99.90;;;;;;5059446;28;20408;-80
2023/03/11 05:31:33;;;;;;;3.80;1.33;;;-1.90;99.90;;;;;;5044915;28;20048;-80
2023/03/11 05:33:59;;;;;;;4.23;1.40;;;-2.00;99.90;;;;;;5067440;28;20044;-80
2023/03/11 05:36:25;;;;;;;3.90;1.40;;;-2.00;99.90;;;;;;5019075;28;20045;-80
2023/03/11 05:38:52;;;;;;;3.90;1.47;;;-2.00;99.90;;;;;;5041252;28;20036;-80
2023/03/11 05:41:18;;;;;;;7.63;1.90;;;-2.10;99.90;;;;;;5069063;28;20048;-80
2023/03/11 05:43:44;;;;;;;4.87;1.57;;;-2.10;99.90;;;;;;5051863;28;20307;-80
2023/03/11 05:46:10;;;;;;;4.97;1.60;;;-2.00;99.90;;;;;;5019044;28;20897;-80
2023/03/11 05:48:36;;;;;;;3.43;1.50;;;-2.10;99.90;;;;;;5053974;28;20376;-80
2023/03/11 05:51:09;;;;;;;6.03;1.70;;;-2.10;99.90;;;;;;5029564;28;20682;-80
2023/03/11 05:53:36;;;;;;;7.70;1.70;;;-2.00;99.90;;;;;;5051831;28;20366;-79
2023/03/11 05:56:02;;;;;;;2.97;1.90;;;-2.10;99.90;;;;;;5054366;28;20907;-80
2023/03/11 05:58:30;;;;;;;2.07;1.40;;;-2.00;99.90;;;;;;5033450;28;20713;-80
2023/03/11 06:00:55;;;;;;;4.63;1.83;;;-2.00;99.90;;;;;;5045735;28;20362;-80
2023/03/11 06:03:21;;;;;;;3.97;1.60;;;-2.10;99.90;;;;;;5064546;28;20366;-80
2023/03/11 06:05:48;;;;;;;3.23;1.50;;;-2.10;99.90;;;;;;5070267;28;20044;-80
2023/03/11 06:08:15;;;;;;;6.00;1.77;;;-2.20;99.90;;;;;;5018299;28;20790;-80
2023/03/11 06:10:41;;;;;;;5.70;2.10;;;-2.20;99.90;;;;;;5034996;28;20315;-80
2023/03/11 06:13:08;;;;;;;3.10;1.70;;;-2.20;99.90;;;;;;5051732;28;20356;-80
2023/03/11 06:15:36;;;;;;;4.70;1.70;;;-2.30;99.90;;;;;;5029796;28;20771;-80
2023/03/11 06:18:02;;;;;;;3.93;1.60;;;-2.30;99.90;;;;;;5019251;28;20359;-80
2023/03/11 06:20:28;;;;;;;2.87;1.73;;;-2.30;99.90;;;;;;5051043;28;20286;-80
2023/03/11 06:22:54;;;;;;;3.67;1.67;;;-2.30;99.90;;;;;;5046569;28;20274;-80
2023/03/11 06:25:19;;;;;;;6.70;1.70;;;-2.20;99.90;;;;;;5018563;28;20037;-80
2023/03/11 06:27:51;;;;;;;3.13;1.40;;;-2.20;99.90;;;;;;5044129;28;20650;-80
2023/03/11 06:30:18;;;;;;;4.22;1.60;;;-2.20;99.90;;;;;;5034576;28;20528;-80
2023/03/11 06:32:47;;;;;;;5.07;1.50;;;-2.20;99.90;;;;;;5034569;28;20617;-80
2023/03/11 06:35:13;;;;;;;3.53;1.63;;;-2.20;99.90;;;;;;5058542;28;20310;-80
2023/03/11 06:37:39;;;;;;;2.07;1.40;;;-2.20;99.90;;;;;;5053342;28;20311;-80
2023/03/11 06:40:08;;;;;;;4.03;2.10;;;-2.20;99.90;;;;;;5046803;28;20363;-80
2023/03/11 06:42:34;;;;;;;4.03;1.63;;;-2.20;99.90;;;;;;5069241;28;20388;-80
2023/03/11 06:45:00;;;;;;;4.57;1.70;;;-2.20;99.90;;;;;;5062373;28;20276;-80
2023/03/11 06:47:26;;;;;;;4.37;1.40;;;-2.10;99.90;;;;;;5032511;28;20564;-80
2023/03/11 06:49:52;;;;;;;6.00;1.80;;;-2.10;99.90;;;;;;5063821;28;20060;-80
2023/03/11 06:52:18;;;;;;;3.97;1.70;;;-2.00;99.90;;;;;;5044341;28;20397;-80
2023/03/11 06:54:44;;;;;;;5.90;1.83;;;-2.00;99.90;;;;;;5017992;28;20167;-81
2023/03/11 06:57:10;;;;;;;6.20;1.80;;;-1.90;99.90;;;;;;5050441;28;20055;-80
2023/03/11 06:59:36;;;;;;;4.87;1.50;;;-1.90;99.90;;;;;;5053287;28;20275;-81
2023/03/11 07:02:03;;;;;;;7.53;1.90;;;-1.90;99.90;;;;;;5046539;28;20284;-81
2023/03/11 07:04:30;;;;;;;4.07;1.70;;;-1.80;99.90;;;;;;5027746;28;20040;-81
2023/03/11 07:06:56;;;;;;;3.67;1.90;;;-1.70;99.90;;;;;;5053508;28;20341;-81
2023/03/11 07:09:24;;;;;;;7.03;1.60;;;-1.80;99.90;;;;;;5046801;28;20375;-81
2023/03/11 07:11:51;;;;;;;4.57;1.70;;;-1.70;99.90;;;;;;5043981;28;20408;-80
2023/03/11 07:14:17;;;;;;;5.53;1.70;;;-1.70;99.90;;;;;;5042812;28;20353;-81
2023/03/11 07:16:44;;;;;;;4.37;1.67;;;-1.50;99.90;;;;;;5040010;28;20287;-81
2023/03/11 07:19:10;;;;;;;1.97;1.47;;;-1.50;99.90;;;;;;5051224;28;20305;-81
2023/03/11 07:21:37;;;;;;;3.63;1.70;;;-1.40;99.90;;;;;;5033808;28;20120;-81
2023/03/11 07:24:03;;;;;;;3.47;1.57;;;-1.30;99.90;;;;;;5045404;28;20075;-80
2023/03/11 07:26:31;;;;;;;4.50;1.43;;;-1.20;99.90;;;;;;5048535;28;20400;-81
2023/03/11 07:28:57;;;;;;;5.97;1.50;;;-1.20;99.90;;;;;;5042407;28;20040;-81
2023/03/11 07:31:25;;;;;;;3.93;1.73;;;-1.10;99.90;;;;;;5045822;28;20066;-81
2023/03/11 07:33:52;;;;;;;3.93;1.23;;;-1.00;99.90;;;;;;5053825;28;20043;-81
2023/03/11 07:36:20;;;;;;;3.47;1.63;;;-1.00;99.90;;;;;;5051532;28;20047;-81
2023/03/11 07:38:46;;;;;;;5.63;1.80;;;-0.90;99.90;;;;;;5046037;28;20123;-81
2023/03/11 07:41:13;;;;;;;4.03;2.03;;;-0.90;99.90;;;;;;5039743;28;20426;-81
2023/03/11 07:43:42;;;;;;;3.53;1.67;;;-0.80;99.90;;;;;;5035822;28;20041;-81
2023/03/11 07:46:11;;;;;;;7.40;2.53;;;-0.70;99.90;;;;;;5023723;28;20086;-82
2023/03/11 07:48:38;;;;;;;3.90;2.03;;;-0.60;99.90;;;;;;5060081;28;20134;-81
2023/03/11 07:51:09;;;;;;;5.20;1.87;;;-0.50;99.90;;;;;;5028027;28;20041;-81
2023/03/11 07:53:35;;;;;;;2.77;1.60;;;-0.50;99.90;;;;;;5066788;28;20481;-81
2023/03/11 07:56:01;;;;;;;8.50;1.73;;;-0.30;99.90;;;;;;5037330;28;20127;-81
2023/03/11 07:58:28;;;;;;;4.80;1.93;;;-0.20;99.90;;;;;;5038573;28;20037;-81
2023/03/11 08:00:55;;;;;;;7.70;1.80;;;-0.10;99.90;;;;;;5056534;28;20044;-81
2023/03/11 08:03:24;;;;;;;6.00;1.77;;;0.00;99.90;;;;;;5068820;28;20037;-80
2023/03/11 08:05:51;;;;;;;5.27;1.63;;;0.00;99.90;;;;;;5052832;28;20513;-81
2023/03/11 08:08:17;;;;;;;4.77;1.70;;;0.20;99.90;;;;;;5042324;28;20047;-82
2023/03/11 08:10:42;;;;;;;9.93;2.13;;;0.20;99.90;;;;;;5056868;28;20072;-82
2023/03/11 08:13:08;;;;;;;6.33;1.80;;;0.40;99.90;;;;;;5057688;28;20072;-82
2023/03/11 08:15:36;;;;;;;4.90;1.67;;;0.50;99.90;;;;;;5027164;28;20044;-80
2023/03/11 08:18:02;;;;;;;4.83;1.70;;;0.60;99.90;;;;;;5061544;28;20420;-79
2023/03/11 08:20:28;;;;;;;4.13;1.67;;;0.70;99.90;;;;;;5056809;28;20043;-79
2023/03/11 08:22:54;;;;;;;2.63;1.53;;;0.80;99.90;;;;;;5055678;28;20040;-79
2023/03/11 08:25:19;;;;;;;2.97;1.60;;;0.90;99.90;;;;;;5072525;28;20079;-79
2023/03/11 08:27:45;;;;;;;7.73;1.83;;;1.00;99.90;;;;;;5059772;28;20131;-80
2023/03/11 08:30:12;;;;;;;4.20;1.40;;;1.10;99.90;;;;;;5053524;28;20054;-79
2023/03/11 08:32:37;;;;;;;7.97;1.80;;;1.20;99.90;;;;;;5061229;28;20051;-78
2023/03/11 08:35:03;;;;;;;5.27;1.67;;;1.30;99.90;;;;;;5025451;28;20049;-78
2023/03/11 08:37:30;;;;;;;5.87;1.60;;;1.40;99.90;;;;;;5038724;28;20408;-78
2023/03/11 08:39:56;;;;;;;4.30;1.80;;;1.50;99.90;;;;;;5043739;28;20044;-78
2023/03/11 08:42:21;;;;;;;3.27;1.40;;;1.70;99.90;;;;;;5067099;28;20040;-77
2023/03/11 08:44:47;;;;;;;5.40;1.73;;;1.80;99.90;;;;;;5062366;28;20129;-78
2023/03/11 08:47:13;;;;;;;6.17;1.70;;;1.90;99.90;;;;;;5040114;28;20040;-78
2023/03/11 08:49:39;;;;;;;5.50;1.83;;;1.90;99.90;;;;;;5053935;28;20120;-78
2023/03/11 08:52:05;;;;;;;4.20;1.80;;;2.00;99.90;;;;;;5063755;28;20050;-79
2023/03/11 08:54:31;;;;;;;6.23;1.77;;;2.20;99.90;;;;;;5055721;28;20151;-80
2023/03/11 08:57:01;;;;;;;5.00;1.80;;;2.20;99.90;;;;;;5025927;28;20033;-82
2023/03/11 08:59:28;;;;;;;4.17;1.70;;;2.30;99.90;;;;;;5036801;28;20052;-82
2023/03/11 09:01:54;;;;;;;7.47;1.90;;;2.40;99.90;;;;;;5042264;28;20036;-83
2023/03/11 09:04:20;;;;;;;3.97;1.43;;;2.50;99.90;;;;;;5051654;28;20033;-84
2023/03/11 09:06:47;;;;;;;5.17;1.80;;;2.60;99.90;;;;;;5042796;28;20624;-84
2023/03/11 09:09:20;;;;;;;3.30;1.60;;;2.70;99.90;;;;;;5053354;28;20051;-84
2023/03/11 09:11:47;;;;;;;5.23;1.77;;;2.80;99.90;;;;;;5036731;28;20041;-85
2023/03/11 09:14:13;;;;;;;5.90;1.60;;;2.90;99.90;;;;;;5025993;28;20040;-85
2023/03/11 09:16:39;;;;;;;4.87;1.67;;;3.00;99.90;;;;;;5060382;28;20403;-84
2023/03/11 09:19:06;;;;;;;3.20;1.60;;;3.00;99.90;;;;;;5045748;28;20129;-84
2023/03/11 09:21:33;;;;;;;7.13;1.77;;;3.10;99.90;;;;;;5065514;28;20534;-83
2023/03/11 09:24:00;;;;;;;3.23;1.60;;;3.20;99.90;;;;;;5035775;28;20044;-82
2023/03/11 09:26:26;;;;;;;5.13;1.90;;;3.30;99.90;;;;;;5037929;28;20387;-81
2023/03/11 09:28:52;;;;;;;5.03;1.93;;;3.30;99.90;;;;;;5055660;28;20051;-81
2023/03/11 09:31:18;;;;;;;3.77;1.80;;;3.40;99.90;;;;;;5025984;28;20035;-81
2023/03/11 09:33:45;;;;;;;4.23;1.37;;;3.50;99.90;;;;;;5046795;28;20041;-82
2023/03/11 09:36:13;;;;;;;6.63;1.87;;;3.60;99.90;;;;;;5061350;28;20101;-82
2023/03/11 09:38:39;;;;;;;2.97;1.57;;;3.70;99.90;;;;;;5042052;28;20033;-82
2023/03/11 09:41:23;;;;;;;5.10;1.60;;;3.80;99.90;;;;;;5048774;28;20519;-82
2023/03/11 09:44:24;;;;;;;3.13;1.67;;;3.90;99.90;;;;;;5042567;28;20048;-82
2023/03/11 09:46:56;;;;;;;6.23;2.27;;;3.90;99.90;;;;;;5036604;28;20037;-82
2023/03/11 09:49:31;;;;;;;6.17;2.00;;;4.00;99.90;;;;;;5040812;28;20147;-82
2023/03/11 09:52:08;;;;;;;7.13;1.60;;;4.10;99.90;;;;;;5052777;28;20046;-82
2023/03/11 09:54:46;;;;;;;3.27;1.80;;;4.10;99.90;;;;;;5045518;28;20136;-82
2023/03/11 09:57:18;;;;;;;8.75;1.90;;;4.20;99.90;;;;;;5044743;28;20044;-81
2023/03/11 09:59:45;;;;;;;4.82;1.50;;;4.20;99.90;;;;;;5061853;28;20044;-81
2023/03/11 10:02:18;;;;;;;9.07;1.90;;;4.20;99.90;;;;;;5043850;28;20480;-81
2023/03/11 10:04:50;;;;;;;3.30;1.50;;;4.30;99.90;;;;;;5056721;28;20082;-81
2023/03/11 10:07:21;;;;;;;4.85;1.52;;;4.40;99.90;;;;;;5050420;28;20491;-81
2023/03/11 10:09:52;;;;;;;3.83;1.47;;;4.40;99.90;;;;;;5056267;28;20520;-80
2023/03/11 10:12:33;;;;;;;11.75;2.42;;;4.50;99.90;;;;;;5044591;28;20716;-80
2023/03/11 10:15:14;;;;;;;4.03;1.90;;;4.60;99.90;;;;;;5067372;28;20120;-80
2023/03/11 10:17:49;;;;;;;4.37;1.53;;;4.60;99.90;;;;;;5063900;28;20044;-80
2023/03/11 10:20:25;;;;;;;4.47;1.50;;;4.60;99.90;;;;;;5036427;28;20102;-80
2023/03/11 10:23:01;;;;;;;6.23;1.80;;;4.60;99.90;;;;;;5043936;28;20033;-81
2023/03/11 10:25:56;;;;;;;5.00;1.67;;;4.70;99.90;;;;;;5061200;28;20068;-82
2023/03/11 10:28:34;;;;;;;4.40;1.83;;;4.80;99.90;;;;;;5068447;28;20111;-82
2023/03/11 10:31:57;;;;;;;6.93;1.50;;;4.80;99.90;;;;;;5043560;28;20040;-81
2023/03/11 10:34:51;;;;;;;6.23;1.90;;;4.80;99.90;;;;;;4976337;28;20147;-83
2023/03/11 10:37:23;;;;;;;4.97;2.00;;;5.00;99.90;;;;;;4990502;28;20088;-80
2023/03/11 10:39:50;;;;;;;4.80;1.50;;;5.00;99.90;;;;;;5038220;28;20060;-81
2023/03/11 10:42:23;;;;;;;4.67;1.83;;;5.00;99.90;;;;;;5042698;28;20048;-81
2023/03/11 10:44:49;;;;;;;4.47;2.10;;;5.10;99.90;;;;;;5046544;28;20040;-83
2023/03/11 10:47:24;;;;;;;4.33;1.60;;;5.20;99.90;;;;;;5051083;28;20397;-81
2023/03/11 10:49:51;;;;;;;4.13;1.40;;;5.20;99.90;;;;;;5046100;28;20053;-82
2023/03/11 10:52:18;;;;;;;2.57;1.70;;;5.20;99.90;;;;;;5050998;28;20492;-83
2023/03/11 10:54:57;;;;;;;2.93;1.40;;;5.30;99.90;;;;;;5042784;28;20380;-83
2023/03/11 10:57:33;;;;;;;3.83;1.80;;;5.30;99.90;;;;;;5070526;28;20037;-83
2023/03/11 11:00:00;;;;;;;5.63;1.60;;;5.40;99.90;;;;;;5035422;28;20444;-84
2023/03/11 11:02:31;;;;;;;4.77;1.60;;;5.40;99.90;;;;;;5047430;28;20033;-83
2023/03/11 11:05:34;;;;;;;5.53;1.80;;;5.50;99.90;;;;;;5054489;28;20444;-81
2023/03/11 11:08:04;;;;;;;6.00;1.53;;;5.60;99.90;;;;;;5070002;28;20396;-79
2023/03/11 11:10:31;;;;;;;6.30;1.77;;;5.60;99.90;;;;;;5041864;28;20444;-79
2023/03/11 11:13:19;;;;;;;4.03;1.70;;;5.70;99.90;;;;;;5042657;28;20048;-81
2023/03/11 11:16:04;;;;;;;5.87;1.83;;;5.80;99.90;;;;;;5040027;28;20561;-78
2023/03/11 11:18:42;;;;;;;6.63;1.65;;;5.90;99.90;;;;;;5062429;28;20033;-81
2023/03/11 11:21:30;;;;;;;3.17;1.80;;;5.80;99.90;;;;;;5042537;28;20059;-81
2023/03/11 11:24:02;;;;;;;3.73;1.57;;;5.90;99.90;;;;;;5042676;28;20047;-81
2023/03/11 11:26:28;;;;;;;7.20;2.13;;;5.90;99.90;;;;;;5048788;28;20492;-81
2023/03/11 11:29:14;;;;;;;6.37;1.50;;;5.90;99.90;;;;;;5019613;28;20083;-80
2023/03/11 11:31:45;;;;;;;5.57;1.50;;;5.90;99.90;;;;;;5052927;28;20037;-83
2023/03/11 11:34:26;;;;;;;5.73;1.37;;;5.90;99.90;;;;;;5040446;28;20040;-83
2023/03/11 11:36:53;;;;;;;5.57;1.80;;;6.00;99.90;;;;;;5065844;28;20175;-81
2023/03/11 11:39:20;;;;;;;4.20;1.47;;;6.00;99.90;;;;;;5046299;28;20053;-82
2023/03/11 11:41:48;;;;;;;5.30;1.90;;;5.90;99.90;;;;;;5060189;28;20344;-81
2023/03/11 11:44:19;;;;;;;8.63;1.70;;;5.90;99.90;;;;;;5038891;28;20064;-82
2023/03/11 11:47:01;;;;;;;2.78;1.45;;;5.90;99.90;;;;;;5053354;28;20033;-82
2023/03/11 11:49:30;;;;;;;4.30;1.50;;;5.90;99.90;;;;;;5056609;28;20420;-84
2023/03/11 11:52:14;;;;;;;3.27;1.50;;;5.90;99.90;;;;;;5050135;28;20048;-81
2023/03/11 11:54:51;;;;;;;5.00;1.40;;;5.80;99.90;;;;;;5040158;28;20041;-83
2023/03/11 11:57:19;;;;;;;3.87;1.73;;;5.80;99.90;;;;;;5053246;28;20126;-83
2023/03/11 11:59:48;;;;;;;4.80;1.80;;;5.90;99.90;;;;;;5046240;28;20488;-83
2023/03/11 12:02:32;;;;;;;3.77;1.77;;;5.90;99.90;;;;;;5033438;28;20094;-82
2023/03/11 12:05:33;;;;;;;5.13;1.90;;;6.10;99.90;;;;;;5055735;28;20041;-83
2023/03/11 12:08:24;;;;;;;2.50;1.20;;;6.10;99.90;;;;;;5052364;28;20045;-83
2023/03/11 12:11:06;;;;;;;3.93;1.47;;;6.10;99.90;;;;;;5058389;28;20037;-83
2023/03/11 12:13:54;;;;;;;4.03;1.45;;;6.10;99.90;;;;;;5056203;28;20075;-82
2023/03/11 12:16:42;;;;;;;3.93;1.70;;;6.00;99.90;;;;;;5053298;28;20083;-82
2023/03/11 12:19:11;;;;;;;2.90;1.47;;;6.10;99.90;;;;;;5063230;28;20048;-82
2023/03/11 12:21:58;;;;;;;2.90;1.30;;;6.20;99.90;;;;;;5036185;28;20052;-82
2023/03/11 12:24:37;;;;;;;4.20;1.30;;;6.20;99.90;;;;;;5062836;28;20124;-81
2023/03/11 12:27:15;;;;;;;5.43;1.40;;;6.30;99.90;;;;;;5050825;28;20033;-82
2023/03/11 12:29:48;;;;;;;6.97;1.67;;;6.30;99.90;;;;;;5049335;28;20078;-82
2023/03/11 12:32:34;;;;;;;5.60;1.50;;;6.30;99.90;;;;;;5062517;28;20424;-82
2023/03/11 12:35:33;;;;;;;3.80;1.20;;;6.30;99.90;;;;;;5053864;28;20037;-81
2023/03/11 12:38:04;;;;;;;4.23;1.70;;;6.30;99.90;;;;;;5057870;28;20557;-83
2023/03/11 12:40:56;;;;;;;4.25;1.40;;;6.20;99.90;;;;;;5060134;28;20090;-82
2023/03/11 12:43:28;;;;;;;2.10;1.27;;;6.30;99.90;;;;;;5055952;28;20045;-83
2023/03/11 12:45:58;;;;;;;3.80;1.40;;;6.40;99.90;;;;;;5053500;28;20106;-81
2023/03/11 12:48:30;;;;;;;4.77;1.63;;;6.40;99.90;;;;;;5037309;28;20041;-82
2023/03/11 12:50:59;;;;;;;3.78;1.30;;;6.40;99.90;;;;;;5036066;28;20091;-83
2023/03/11 12:53:44;;;;;;;5.67;1.60;;;6.50;99.90;;;;;;5059382;28;20048;-82
2023/03/11 12:56:22;;;;;;;5.97;1.70;;;6.50;99.90;;;;;;5068614;28;20107;-82
2023/03/11 12:59:00;;;;;;;3.90;1.50;;;6.50;99.90;;;;;;5055469;28;20450;-82
2023/03/11 13:01:46;;;;;;;4.70;1.23;;;6.50;99.90;;;;;;5062478;28;20501;-82
2023/03/11 13:04:40;;;;;;;7.60;1.50;;;6.50;99.90;;;;;;5052657;28;20500;-81